Time;durP1;ratioP1;P1;durP2;ratioP2;P2;SDS_P1;SDS_P2;PMS_P1;PMS_P2;Temp;Humidity;BMP_temperature;BMP_pressure;BME280_temperature;BME280_humidity;BME280_pressure;Samples;Min_cycle;Max_cycle;Signal;HPM_P1;HPM_P2
2021/05/13 00:02:20;;;;;;;1999.90;999.90;;;11.50;99.90;;;;;;5056321;28;20185;-42
2021/05/13 00:04:47;;;;;;;1999.90;999.90;;;11.50;99.90;;;;;;5056345;28;20161;-42
2021/05/13 00:07:13;;;;;;;1999.90;999.90;;;11.40;99.90;;;;;;5056428;28;20236;-42
2021/05/13 00:09:42;;;;;;;1999.90;999.90;;;11.40;99.90;;;;;;5056415;28;20753;-41
2021/05/13 00:12:26;;;;;;;1999.90;999.90;;;11.40;99.90;;;;;;5056240;28;20172;-42
2021/05/13 00:14:54;;;;;;;1999.90;999.90;;;11.30;99.90;;;;;;5056154;28;20256;-42
2021/05/13 00:17:21;;;;;;;1999.90;999.90;;;11.30;99.90;;;;;;5056286;28;20532;-43
2021/05/13 00:19:48;;;;;;;1999.90;999.90;;;11.40;99.90;;;;;;5056076;28;20179;-43
2021/05/13 00:22:14;;;;;;;1999.90;999.90;;;11.40;99.90;;;;;;5056058;28;20204;-43
2021/05/13 00:24:41;;;;;;;1999.90;999.90;;;11.30;99.90;;;;;;5056139;28;20177;-43
2021/05/13 00:27:09;;;;;;;1999.90;999.90;;;11.30;99.90;;;;;;5055746;28;20252;-42
2021/05/13 00:29:35;;;;;;;1999.90;999.90;;;11.10;99.90;;;;;;5055856;28;20243;-43
2021/05/13 00:32:02;;;;;;;1999.90;999.90;;;11.00;99.90;;;;;;5055858;28;20169;-43
2021/05/13 00:34:29;;;;;;;1999.90;999.90;;;11.00;99.90;;;;;;5054716;28;20193;-43
2021/05/13 00:36:56;;;;;;;1999.90;999.90;;;11.10;99.90;;;;;;5055732;28;20252;-43
2021/05/13 00:39:23;;;;;;;1999.90;999.90;;;11.10;99.90;;;;;;5055676;28;20209;-42
2021/05/13 00:41:50;;;;;;;1999.90;999.90;;;11.10;99.90;;;;;;5055661;28;20248;-42
2021/05/13 00:44:17;;;;;;;1999.90;999.90;;;11.10;99.90;;;;;;5055709;28;20177;-43
2021/05/13 00:46:44;;;;;;;1999.90;999.90;;;11.10;99.90;;;;;;5055730;28;20632;-42
2021/05/13 00:49:14;;;;;;;1999.90;999.90;;;11.10;99.90;;;;;;5055512;28;20169;-42
2021/05/13 00:51:41;;;;;;;1999.90;999.90;;;11.10;99.90;;;;;;5055563;28;20180;-41
2021/05/13 00:54:09;;;;;;;1999.90;999.90;;;11.00;99.90;;;;;;5055430;28;20176;-42
2021/05/13 00:56:36;;;;;;;1999.90;999.90;;;11.00;99.90;;;;;;5054861;28;20169;-42
2021/05/13 00:59:08;;;;;;;1999.90;999.90;;;11.00;99.90;;;;;;5055359;28;20205;-42
2021/05/13 01:04:15;;;;;;;1999.90;999.90;;;10.90;99.90;;;;;;5055377;28;20197;-42
2021/05/13 01:06:43;;;;;;;1999.90;999.90;;;10.90;99.90;;;;;;5055162;28;20386;-45
2021/05/13 01:09:11;;;;;;;1999.90;999.90;;;10.90;99.90;;;;;;5055107;28;20216;-44
2021/05/13 01:11:43;;;;;;;1999.90;999.90;;;10.80;99.90;;;;;;5054981;28;20256;-46
2021/05/13 01:16:56;;;;;;;1999.90;999.90;;;10.80;99.90;;;;;;5055009;28;20554;-43
2021/05/13 01:19:23;;;;;;;1999.90;999.90;;;10.90;99.90;;;;;;5054889;28;20200;-43
2021/05/13 01:21:50;;;;;;;1999.90;999.90;;;10.90;99.90;;;;;;5054979;28;20161;-43
2021/05/13 01:24:17;;;;;;;1999.90;999.90;;;10.90;99.90;;;;;;5054835;28;20205;-43
2021/05/13 01:26:46;;;;;;;1999.90;999.90;;;10.90;99.90;;;;;;5054754;28;20162;-43
2021/05/13 01:29:15;;;;;;;1999.90;999.90;;;10.80;99.90;;;;;;5054537;28;20225;-43
2021/05/13 01:31:41;;;;;;;1999.90;999.90;;;11.00;99.90;;;;;;5053368;28;20256;-42
2021/05/13 01:34:09;;;;;;;1999.90;999.90;;;11.00;99.90;;;;;;5054646;28;20227;-42
2021/05/13 01:36:36;;;;;;;1999.90;999.90;;;11.00;99.90;;;;;;5054597;28;20249;-42
2021/05/13 01:39:05;;;;;;;1999.90;999.90;;;11.10;99.90;;;;;;5054538;28;20184;-42
2021/05/13 01:41:32;;;;;;;1999.90;999.90;;;11.10;99.90;;;;;;5054518;28;20161;-43
2021/05/13 01:43:59;;;;;;;1999.90;999.90;;;11.10;99.90;;;;;;5054318;28;20683;-43
2021/05/13 01:46:26;;;;;;;1999.90;999.90;;;11.10;99.90;;;;;;5054411;28;20161;-42
2021/05/13 01:48:53;;;;;;;1999.90;999.90;;;11.10;99.90;;;;;;5054390;28;20169;-42
2021/05/13 01:51:20;;;;;;;1999.90;999.90;;;11.10;99.90;;;;;;5054401;28;20165;-43
2021/05/13 01:53:47;;;;;;;1999.90;999.90;;;11.10;99.90;;;;;;5054281;28;20235;-42
2021/05/13 01:56:14;;;;;;;1999.90;999.90;;;11.00;99.90;;;;;;5054133;28;20181;-41
2021/05/13 01:58:42;;;;;;;1999.90;999.90;;;10.90;99.90;;;;;;5054190;28;20165;-42
2021/05/13 02:01:11;;;;;;;1999.90;999.90;;;10.90;99.90;;;;;;5054103;28;20508;-42
2021/05/13 02:03:39;;;;;;;1999.90;999.90;;;10.90;99.90;;;;;;5053974;28;20695;-41
2021/05/13 02:06:06;;;;;;;1999.90;999.90;;;10.80;99.90;;;;;;5054069;28;20172;-42
2021/05/13 02:08:32;;;;;;;1999.90;999.90;;;10.80;99.90;;;;;;5053029;28;20166;-42
2021/05/13 02:11:00;;;;;;;1999.90;999.90;;;10.80;99.90;;;;;;5053839;28;20574;-42
2021/05/13 02:13:27;;;;;;;1999.90;999.90;;;10.80;99.90;;;;;;5053855;28;20169;-42
2021/05/13 02:15:54;;;;;;;1999.90;999.90;;;10.80;99.90;;;;;;5053894;28;20157;-42
2021/05/13 02:18:21;;;;;;;1999.90;999.90;;;10.80;99.90;;;;;;5053851;28;20527;-43
2021/05/13 02:20:49;;;;;;;1999.90;999.90;;;10.70;99.90;;;;;;5053691;28;20157;-42
2021/05/13 02:23:16;;;;;;;1999.90;999.90;;;10.70;99.90;;;;;;5053739;28;20556;-42
2021/05/13 02:25:46;;;;;;;1999.90;999.90;;;10.60;99.90;;;;;;5053562;28;20165;-42
2021/05/13 02:28:14;;;;;;;1999.90;999.90;;;10.60;99.90;;;;;;5053474;28;20239;-43
2021/05/13 02:30:41;;;;;;;1999.90;999.90;;;10.50;99.90;;;;;;5053446;28;20169;-42
2021/05/13 02:33:09;;;;;;;1999.90;999.90;;;10.50;99.90;;;;;;5053478;28;20258;-45
2021/05/13 02:35:36;;;;;;;1999.90;999.90;;;10.40;99.90;;;;;;5053487;28;20169;-44
2021/05/13 02:38:03;;;;;;;1999.90;999.90;;;10.40;99.90;;;;;;5053448;28;20205;-42
2021/05/13 02:40:30;;;;;;;1999.90;999.90;;;10.40;99.90;;;;;;5053334;28;20543;-43
2021/05/13 02:42:57;;;;;;;1999.90;999.90;;;10.40;99.90;;;;;;5053276;28;20211;-43
2021/05/13 02:45:24;;;;;;;1999.90;999.90;;;10.40;99.90;;;;;;5053434;28;20524;-43
2021/05/13 02:47:52;;;;;;;1999.90;999.90;;;10.40;99.90;;;;;;5053243;28;20165;-43
2021/05/13 02:50:19;;;;;;;1999.90;999.90;;;10.50;99.90;;;;;;5053113;28;20177;-43
2021/05/13 02:52:46;;;;;;;1999.90;999.90;;;10.50;99.90;;;;;;5053136;28;20171;-41
2021/05/13 02:55:13;;;;;;;1999.90;999.90;;;10.50;99.90;;;;;;5053110;28;20670;-41
2021/05/13 02:57:41;;;;;;;1999.90;999.90;;;10.40;99.90;;;;;;5053064;28;20173;-41
2021/05/13 03:00:29;;;;;;;1999.90;999.90;;;10.40;99.90;;;;;;5052990;28;20635;-41
2021/05/13 03:02:57;;;;;;;1999.90;999.90;;;10.40;99.90;;;;;;5052976;28;20717;-42
2021/05/13 03:05:27;;;;;;;1999.90;999.90;;;10.30;99.90;;;;;;5052989;28;20162;-42
2021/05/13 03:07:57;;;;;;;1999.90;999.90;;;10.40;99.90;;;;;;5052979;28;20169;-42
2021/05/13 03:10:42;;;;;;;1999.90;999.90;;;10.40;99.90;;;;;;5052915;28;20259;-42
2021/05/13 03:13:11;;;;;;;1999.90;999.90;;;10.40;99.90;;;;;;5052864;28;20222;-42
2021/05/13 03:15:38;;;;;;;1999.90;999.90;;;10.30;99.90;;;;;;5051558;28;20640;-42
2021/05/13 03:18:06;;;;;;;1999.90;999.90;;;10.30;99.90;;;;;;5052830;28;20200;-42
2021/05/13 03:20:41;;;;;;;1999.90;999.90;;;10.50;99.90;;;;;;5052485;28;20169;-43
2021/05/13 03:23:11;;;;;;;1999.90;999.90;;;10.50;99.90;;;;;;5052780;28;20210;-43
2021/05/13 03:25:41;;;;;;;1999.90;999.90;;;10.50;99.90;;;;;;5052720;28;20184;-43
2021/05/13 03:28:11;;;;;;;1999.90;999.90;;;10.50;99.90;;;;;;5052729;28;20665;-43
2021/05/13 03:30:42;;;;;;;1999.90;999.90;;;10.60;99.90;;;;;;5052818;28;20216;-43
2021/05/13 03:33:10;;;;;;;1999.90;999.90;;;10.60;99.90;;;;;;5052778;28;20524;-44
2021/05/13 03:35:37;;;;;;;1999.90;999.90;;;10.50;99.90;;;;;;5052828;28;20216;-44
2021/05/13 03:38:06;;;;;;;1999.90;999.90;;;10.50;99.90;;;;;;5052642;28;20268;-43
2021/05/13 03:40:33;;;;;;;1999.90;999.90;;;10.50;99.90;;;;;;5052722;28;20223;-43
2021/05/13 03:43:01;;;;;;;1999.90;999.90;;;10.40;99.90;;;;;;5052612;28;20291;-43
2021/05/13 03:45:29;;;;;;;1999.90;999.90;;;10.40;99.90;;;;;;5052819;28;20177;-43
2021/05/13 03:47:56;;;;;;;1999.90;999.90;;;10.40;99.90;;;;;;5052617;28;20173;-43
2021/05/13 03:50:23;;;;;;;1999.90;999.90;;;10.40;99.90;;;;;;5052597;28;20181;-43
2021/05/13 03:52:49;;;;;;;1999.90;999.90;;;10.40;99.90;;;;;;5052832;28;20207;-43
2021/05/13 03:55:16;;;;;;;1999.90;999.90;;;10.40;99.90;;;;;;5052484;28;20165;-43
2021/05/13 03:57:43;;;;;;;1999.90;999.90;;;10.30;99.90;;;;;;5052508;28;20177;-43
2021/05/13 04:00:12;;;;;;;1999.90;999.90;;;10.30;99.90;;;;;;5052414;28;20513;-43
2021/05/13 04:02:41;;;;;;;1999.90;999.90;;;10.30;99.90;;;;;;5052361;28;20209;-43
2021/05/13 04:05:11;;;;;;;1999.90;999.90;;;10.30;99.90;;;;;;5052500;28;20257;-43
2021/05/13 04:07:39;;;;;;;1999.90;999.90;;;10.30;99.90;;;;;;5052384;28;20180;-42
2021/05/13 04:10:08;;;;;;;1999.90;999.90;;;10.20;99.90;;;;;;5052406;28;20170;-44
2021/05/13 04:12:39;;;;;;;1999.90;999.90;;;10.10;99.90;;;;;;5052309;28;20184;-43
2021/05/13 04:15:08;;;;;;;1999.90;999.90;;;10.00;99.90;;;;;;5052385;28;20214;-43
2021/05/13 04:17:36;;;;;;;1999.90;999.90;;;9.90;99.90;;;;;;5052262;28;20183;-43
2021/05/13 04:20:05;;;;;;;1999.90;999.90;;;9.90;99.90;;;;;;5052391;28;20227;-43
2021/05/13 04:22:31;;;;;;;1999.90;999.90;;;9.90;99.90;;;;;;5052322;28;20201;-44
2021/05/13 04:24:58;;;;;;;1999.90;999.90;;;9.90;99.90;;;;;;5052275;28;20177;-43
2021/05/13 04:27:25;;;;;;;1999.90;999.90;;;9.90;99.90;;;;;;5051952;28;20177;-44
2021/05/13 04:29:52;;;;;;;1999.90;999.90;;;9.90;99.90;;;;;;5052189;28;20267;-43
2021/05/13 04:32:19;;;;;;;1999.90;999.90;;;9.90;99.90;;;;;;5053185;28;20162;-42
2021/05/13 04:34:45;;;;;;;1999.90;999.90;;;9.90;99.90;;;;;;5055629;28;20182;-43
2021/05/13 04:37:12;;;;;;;1999.90;999.90;;;10.00;99.90;;;;;;5055775;28;20690;-45
2021/05/13 04:39:39;;;;;;;1999.90;999.90;;;9.90;99.90;;;;;;5055754;28;20252;-43
2021/05/13 04:42:06;;;;;;;1999.90;999.90;;;9.90;99.90;;;;;;5055736;28;20169;-43
2021/05/13 04:44:34;;;;;;;1999.90;999.90;;;9.90;99.90;;;;;;5055766;28;20225;-43
2021/05/13 04:47:18;;;;;;;1999.90;999.90;;;9.90;99.90;;;;;;5055622;28;20173;-43
2021/05/13 04:49:45;;;;;;;1999.90;999.90;;;10.00;99.90;;;;;;5055814;28;20611;-43
2021/05/13 04:52:12;;;;;;;1999.90;999.90;;;10.00;99.90;;;;;;5055449;28;20177;-42
2021/05/13 04:54:38;;;;;;;1999.90;999.90;;;10.10;99.90;;;;;;5055421;28;20184;-43
2021/05/13 04:57:06;;;;;;;1999.90;999.90;;;10.20;99.90;;;;;;5055415;28;20170;-42
2021/05/13 04:59:32;;;;;;;1999.90;999.90;;;10.20;99.90;;;;;;5055246;28;20184;-42
2021/05/13 05:01:59;;;;;;;1999.90;999.90;;;10.20;99.90;;;;;;5055122;28;20263;-42
2021/05/13 05:04:26;;;;;;;1999.90;999.90;;;10.10;99.90;;;;;;5055005;28;20662;-44
2021/05/13 05:06:53;;;;;;;1999.90;999.90;;;10.10;99.90;;;;;;5055018;28;20173;-42
2021/05/13 05:09:20;;;;;;;1999.90;999.90;;;10.10;99.90;;;;;;5054983;28;20520;-42
2021/05/13 05:11:47;;;;;;;1999.90;999.90;;;10.20;99.90;;;;;;5053723;28;20180;-49
2021/05/13 05:14:13;;;;;;;1999.90;999.90;;;10.20;99.90;;;;;;5055004;28;20170;-42
2021/05/13 05:16:40;;;;;;;1999.90;999.90;;;10.20;99.90;;;;;;5054939;28;20663;-43
2021/05/13 05:19:08;;;;;;;1999.90;999.90;;;10.20;99.90;;;;;;5055118;28;20180;-43
2021/05/13 05:21:35;;;;;;;1999.90;999.90;;;10.20;99.90;;;;;;5054960;28;20691;-43
2021/05/13 05:24:01;;;;;;;1999.90;999.90;;;10.10;99.90;;;;;;5054802;28;20308;-43
2021/05/13 05:26:28;;;;;;;1999.90;999.90;;;10.10;99.90;;;;;;5054801;28;20177;-42
2021/05/13 05:28:55;;;;;;;1999.90;999.90;;;10.20;99.90;;;;;;5054497;28;20304;-42
2021/05/13 05:31:22;;;;;;;1999.90;999.90;;;10.10;99.90;;;;;;5054682;28;20172;-43
2021/05/13 05:33:49;;;;;;;1999.90;999.90;;;10.20;99.90;;;;;;5054601;28;20169;-43
2021/05/13 05:36:16;;;;;;;1999.90;999.90;;;10.20;99.90;;;;;;5054471;28;20173;-42
2021/05/13 05:38:43;;;;;;;1999.90;999.90;;;10.20;99.90;;;;;;5054353;28;20208;-42
2021/05/13 05:41:09;;;;;;;1999.90;999.90;;;10.20;99.90;;;;;;5054491;28;20261;-42
2021/05/13 05:43:36;;;;;;;1999.90;999.90;;;10.20;99.90;;;;;;5054235;28;20211;-45
2021/05/13 05:46:03;;;;;;;1999.90;999.90;;;10.20;99.90;;;;;;5054146;28;20176;-42
2021/05/13 05:48:31;;;;;;;1999.90;999.90;;;10.30;99.90;;;;;;5054185;28;20176;-42
2021/05/13 05:50:58;;;;;;;1999.90;999.90;;;10.30;99.90;;;;;;5054183;28;20639;-41
2021/05/13 05:53:25;;;;;;;1999.90;999.90;;;10.40;99.90;;;;;;5054026;28;20169;-41
2021/05/13 05:55:52;;;;;;;1999.90;999.90;;;10.40;99.90;;;;;;5053767;28;20181;-42
2021/05/13 05:58:19;;;;;;;1999.90;999.90;;;10.50;99.90;;;;;;5053979;28;20259;-43
2021/05/13 06:00:49;;;;;;;1999.90;999.90;;;10.50;99.90;;;;;;5053834;28;20165;-42
2021/05/13 06:03:16;;;;;;;1999.90;999.90;;;10.70;99.90;;;;;;5053956;28;20213;-39
2021/05/13 06:05:43;;;;;;;1999.90;999.90;;;10.90;99.90;;;;;;5053908;28;20691;-44
2021/05/13 06:08:11;;;;;;;1999.90;999.90;;;11.10;99.90;;;;;;5054023;28;20688;-46
2021/05/13 06:10:38;;;;;;;1999.90;999.90;;;11.20;99.90;;;;;;5053761;28;20181;-45
2021/05/13 06:13:07;;;;;;;1999.90;999.90;;;11.40;99.90;;;;;;5053673;28;20165;-45
2021/05/13 06:15:35;;;;;;;1999.90;999.90;;;11.50;99.90;;;;;;5052427;28;20173;-57
2021/05/13 06:18:02;;;;;;;1999.90;999.90;;;11.40;99.90;;;;;;5053754;28;20177;-45
2021/05/13 06:20:30;;;;;;;1999.90;999.90;;;11.40;99.90;;;;;;5053546;28;20169;-48
2021/05/13 06:22:57;;;;;;;1999.90;999.90;;;11.30;99.90;;;;;;5053362;28;20212;-46
2021/05/13 06:25:26;;;;;;;1999.90;999.90;;;11.30;99.90;;;;;;5053287;28;20192;-43
2021/05/13 06:27:53;;;;;;;1999.90;999.90;;;11.20;99.90;;;;;;5052978;28;20232;-44
2021/05/13 06:30:21;;;;;;;1999.90;999.90;;;11.20;99.90;;;;;;5052809;28;20203;-44
2021/05/13 06:32:49;;;;;;;1999.90;999.90;;;11.20;99.90;;;;;;5053373;28;20165;-42
2021/05/13 06:35:19;;;;;;;1999.90;999.90;;;11.20;99.90;;;;;;5053344;28;20248;-44
2021/05/13 06:37:46;;;;;;;1999.90;999.90;;;11.20;99.90;;;;;;5053251;28;20515;-45
2021/05/13 06:40:29;;;;;;;1999.90;999.90;;;11.30;99.90;;;;;;5052266;28;20632;-51
2021/05/13 06:42:55;;;;;;;1999.90;999.90;;;11.30;99.90;;;;;;5035619;28;20197;-46
2021/05/13 06:45:22;;;;;;;1999.90;999.90;;;11.40;99.90;;;;;;5051700;28;20216;-44
2021/05/13 06:47:49;;;;;;;1999.90;999.90;;;11.60;99.90;;;;;;5051315;28;20654;-50
2021/05/13 06:50:16;;;;;;;1999.90;999.90;;;11.70;99.90;;;;;;5052911;28;20260;-43
2021/05/13 06:52:43;;;;;;;1999.90;999.90;;;11.90;99.90;;;;;;5052976;28;20194;-46
2021/05/13 06:55:10;;;;;;;1999.90;999.90;;;12.10;99.90;;;;;;5052470;28;20169;-45
2021/05/13 06:57:36;;;;;;;1999.90;999.90;;;12.20;99.90;;;;;;5052810;28;20172;-48
2021/05/13 07:00:04;;;;;;;1999.90;999.90;;;12.20;99.90;;;;;;5052887;28;20208;-49
2021/05/13 07:02:32;;;;;;;1999.90;999.90;;;12.20;99.90;;;;;;5052838;28;20204;-43
2021/05/13 07:04:59;;;;;;;1999.90;999.90;;;12.30;99.90;;;;;;5051459;28;20940;-44
2021/05/13 07:07:26;;;;;;;1999.90;999.90;;;12.40;99.90;;;;;;5052384;28;20410;-42
2021/05/13 07:09:53;;;;;;;1999.90;999.90;;;12.50;99.90;;;;;;5052429;28;20165;-47
2021/05/13 07:12:20;;;;;;;1999.90;999.90;;;12.50;99.90;;;;;;5052419;28;20209;-44
2021/05/13 07:14:47;;;;;;;1999.90;999.90;;;12.90;99.90;;;;;;5052304;28;20177;-43
2021/05/13 07:17:13;;;;;;;1999.90;999.90;;;12.80;99.90;;;;;;5052499;28;20452;-47
2021/05/13 07:19:40;;;;;;;1999.90;999.90;;;12.90;99.90;;;;;;5052064;28;20161;-45
2021/05/13 07:22:07;;;;;;;1999.90;999.90;;;12.90;99.90;;;;;;5051944;28;20172;-44
2021/05/13 07:24:33;;;;;;;1999.90;999.90;;;13.00;99.90;;;;;;5052331;28;20177;-47
2021/05/13 07:27:00;;;;;;;1999.90;999.90;;;13.00;99.90;;;;;;5052231;28;20165;-46
2021/05/13 07:29:27;;;;;;;1999.90;999.90;;;13.10;99.90;;;;;;5051842;28;20224;-51
2021/05/13 07:31:54;;;;;;;1999.90;999.90;;;13.20;99.90;;;;;;5052307;28;20173;-46
2021/05/13 07:34:21;;;;;;;1999.90;999.90;;;13.30;99.90;;;;;;5052188;28;20165;-47
2021/05/13 07:36:47;;;;;;;1999.90;999.90;;;13.40;99.90;;;;;;5052059;28;20196;-47
2021/05/13 07:39:15;;;;;;;1999.90;999.90;;;13.50;99.90;;;;;;5052229;28;20299;-52
2021/05/13 07:41:42;;;;;;;1999.90;999.90;;;13.70;99.90;;;;;;5051999;28;20295;-56
2021/05/13 07:44:09;;;;;;;1999.90;999.90;;;14.30;99.90;;;;;;5051741;28;20208;-53
2021/05/13 07:46:39;;;;;;;1999.90;999.90;;;14.70;99.90;;;;;;5051666;28;20165;-56
2021/05/13 07:49:08;;;;;;;1999.90;999.90;;;14.90;99.90;;;;;;5052096;28;20172;-50
2021/05/13 07:51:35;;;;;;;1999.90;999.90;;;15.10;99.90;;;;;;5051997;28;20161;-47
2021/05/13 07:54:03;;;;;;;1999.90;999.90;;;15.30;99.90;;;;;;5051789;28;20177;-51
2021/05/13 07:56:30;;;;;;;1999.90;999.90;;;15.70;99.90;;;;;;5050634;28;20176;-51
2021/05/13 07:58:56;;;;;;;1999.90;999.90;;;15.90;99.90;;;;;;5052020;28;20175;-48
2021/05/13 08:01:23;;;;;;;1999.90;999.90;;;15.90;99.90;;;;;;5051759;28;20177;-48
2021/05/13 08:03:50;;;;;;;1999.90;999.90;;;15.40;99.90;;;;;;5051962;28;20203;-47
2021/05/13 08:06:17;;;;;;;1999.90;999.90;;;15.60;99.90;;;;;;5051787;28;20161;-48
2021/05/13 08:08:43;;;;;;;1999.90;999.90;;;15.30;99.90;;;;;;5054144;28;20558;-47
2021/05/13 08:11:10;;;;;;;1999.90;999.90;;;15.10;99.90;;;;;;5053994;28;20558;-50
2021/05/13 08:13:37;;;;;;;1999.90;999.90;;;15.10;99.90;;;;;;5055414;28;20248;-51
2021/05/13 08:16:04;;;;;;;1999.90;999.90;;;15.10;99.90;;;;;;5055549;28;20260;-47
2021/05/13 08:18:31;;;;;;;1999.90;999.90;;;15.20;99.90;;;;;;5055609;28;20169;-47
2021/05/13 08:20:58;;;;;;;1999.90;999.90;;;15.50;99.90;;;;;;5055460;28;20223;-47
2021/05/13 08:23:24;;;;;;;1999.90;999.90;;;16.10;99.90;;;;;;5055403;28;20201;-49
2021/05/13 08:25:51;;;;;;;1999.90;999.90;;;16.20;99.90;;;;;;5055478;28;20215;-49
2021/05/13 08:28:18;;;;;;;1999.90;999.90;;;16.20;99.90;;;;;;5054528;28;20232;-48
2021/05/13 08:30:44;;;;;;;1999.90;999.90;;;16.20;99.90;;;;;;5054931;28;20169;-47
2021/05/13 08:33:11;;;;;;;1999.90;999.90;;;16.20;99.90;;;;;;5054673;28;20173;-51
2021/05/13 08:35:38;;;;;;;1999.90;999.90;;;16.50;99.90;;;;;;5053682;28;20234;-48
2021/05/13 08:38:05;;;;;;;1999.90;999.90;;;16.60;99.90;;;;;;5054855;28;20315;-46
2021/05/13 08:40:32;;;;;;;1999.90;999.90;;;16.60;99.90;;;;;;5054892;28;20188;-44
2021/05/13 08:42:59;;;;;;;1999.90;999.90;;;16.60;99.90;;;;;;5054703;28;20217;-43
2021/05/13 08:45:29;;;;;;;1999.90;999.90;;;16.60;99.90;;;;;;5054516;28;20199;-46
2021/05/13 08:47:56;;;;;;;1999.90;999.90;;;16.70;99.90;;;;;;5054564;28;20165;-41
2021/05/13 08:50:23;;;;;;;1999.90;999.90;;;16.80;99.90;;;;;;5053257;28;20177;-40
2021/05/13 08:52:50;;;;;;;1999.90;999.90;;;17.20;99.90;;;;;;5054503;28;20204;-47
2021/05/13 08:55:16;;;;;;;1999.90;999.90;;;17.60;99.90;;;;;;5054945;28;20629;-50
2021/05/13 08:57:43;;;;;;;1999.90;999.90;;;17.90;99.90;;;;;;5054576;28;20173;-51
2021/05/13 09:00:11;;;;;;;1999.90;999.90;;;18.20;99.90;;;;;;5055094;28;20165;-48
2021/05/13 09:02:37;;;;;;;1999.90;999.90;;;18.20;99.30;;;;;;5054577;28;20666;-44
2021/05/13 09:05:05;;;;;;;1999.90;999.90;;;18.00;99.10;;;;;;5054633;28;20604;-47
2021/05/13 09:07:32;;;;;;;1999.90;999.90;;;18.10;99.90;;;;;;5054617;28;20220;-47
2021/05/13 09:10:03;;;;;;;1999.90;999.90;;;18.30;99.10;;;;;;5054365;28;20169;-46
2021/05/13 09:12:36;;;;;;;1999.90;999.90;;;18.30;98.70;;;;;;5054533;28;20226;-47
2021/05/13 09:15:22;;;;;;;1999.90;999.90;;;18.50;98.60;;;;;;5053945;28;20171;-48
2021/05/13 09:18:01;;;;;;;1999.90;999.90;;;18.70;98.40;;;;;;5053696;28;20157;-48
2021/05/13 09:20:38;;;;;;;1999.90;999.90;;;18.90;97.50;;;;;;5054447;28;20244;-41
2021/05/13 09:23:28;;;;;;;1999.90;999.90;;;19.10;96.50;;;;;;5053901;28;20197;-43
2021/05/13 09:26:12;;;;;;;1999.90;999.90;;;19.20;95.50;;;;;;5054115;28;20153;-54
2021/05/13 09:28:39;;;;;;;1999.90;999.90;;;19.60;95.10;;;;;;5053720;28;20622;-43
2021/05/13 09:31:07;;;;;;;1999.90;999.90;;;20.40;95.00;;;;;;5053897;28;20211;-56
2021/05/13 09:33:38;;;;;;;1999.90;999.90;;;20.70;92.90;;;;;;5053988;28;20179;-44
2021/05/13 09:36:27;;;;;;;1999.90;999.90;;;20.80;92.30;;;;;;5053803;28;20158;-46
2021/05/13 09:38:54;;;;;;;1999.90;999.90;;;20.90;91.40;;;;;;5054187;28;20165;-49
2021/05/13 09:41:29;;;;;;;1999.90;999.90;;;20.80;92.00;;;;;;5054003;28;20280;-48
2021/05/13 09:43:56;;;;;;;1999.90;999.90;;;20.80;91.40;;;;;;5053432;28;20208;-51
2021/05/13 09:46:34;;;;;;;1999.90;999.90;;;20.90;91.60;;;;;;5053757;28;20169;-46
2021/05/13 09:49:02;;;;;;;1999.90;999.90;;;21.00;90.60;;;;;;5053719;28;20165;-51
2021/05/13 09:51:38;;;;;;;1999.90;999.90;;;21.00;90.40;;;;;;5053524;28;20161;-46
2021/05/13 09:54:15;;;;;;;1999.90;999.90;;;21.00;90.10;;;;;;5053675;28;20184;-47
2021/05/13 09:56:46;;;;;;;1999.90;999.90;;;20.90;90.30;;;;;;5053644;28;20161;-51
2021/05/13 09:59:36;;;;;;;1999.90;999.90;;;21.00;89.50;;;;;;5053454;28;20173;-50
2021/05/13 10:02:08;;;;;;;1999.90;999.90;;;21.20;87.30;;;;;;5053565;28;20169;-51
2021/05/13 10:04:34;;;;;;;1999.90;999.90;;;21.30;88.00;;;;;;5053218;28;20272;-48
2021/05/13 10:07:01;;;;;;;1999.90;999.90;;;21.40;88.10;;;;;;5053508;28;20169;-57
2021/05/13 10:09:31;;;;;;;1999.90;999.90;;;21.50;86.30;;;;;;5053514;28;20177;-46
2021/05/13 10:12:00;;;;;;;1999.90;999.90;;;21.60;86.40;;;;;;5053703;28;20550;-50
2021/05/13 10:14:29;;;;;;;1999.90;999.90;;;21.80;86.40;;;;;;5051758;28;20658;-50
2021/05/13 10:17:04;;;;;;;1999.90;999.90;;;22.00;85.70;;;;;;5052808;28;20202;-53
2021/05/13 10:19:42;;;;;;;1999.90;999.90;;;22.20;82.40;;;;;;5053649;28;20548;-45
2021/05/13 10:22:15;;;;;;;1999.90;999.90;;;22.30;82.80;;;;;;5053098;28;20161;-46
2021/05/13 10:24:43;;;;;;;1999.90;999.90;;;22.30;82.70;;;;;;5052939;28;20184;-51
2021/05/13 10:27:21;;;;;;;1999.90;999.90;;;22.10;82.10;;;;;;5053009;28;20200;-46
2021/05/13 10:29:59;;;;;;;1999.90;999.90;;;22.30;82.70;;;;;;5052215;28;20620;-56
2021/05/13 10:32:32;;;;;;;1999.90;999.90;;;22.40;81.40;;;;;;5053318;28;20161;-54
2021/05/13 10:35:06;;;;;;;1999.90;999.90;;;22.60;79.60;;;;;;5053821;28;20157;-49
2021/05/13 10:37:39;;;;;;;1999.90;999.90;;;22.70;78.60;;;;;;5053077;28;20246;-56
2021/05/13 10:40:13;;;;;;;1999.90;999.90;;;22.80;78.00;;;;;;5053036;28;20284;-46
2021/05/13 10:42:44;;;;;;;1999.90;999.90;;;22.70;78.90;;;;;;5052818;28;20212;-46
2021/05/13 10:45:26;;;;;;;1999.90;999.90;;;22.60;81.30;;;;;;5052873;28;20184;-46
2021/05/13 10:48:11;;;;;;;1999.90;999.90;;;22.80;79.70;;;;;;5052739;28;20348;-47
2021/05/13 10:50:55;;;;;;;1999.90;999.90;;;23.00;77.90;;;;;;5052828;28;20196;-48
2021/05/13 10:53:39;;;;;;;1999.90;999.90;;;23.30;76.50;;;;;;5052636;28;20158;-45
2021/05/13 10:56:13;;;;;;;1999.90;999.90;;;23.40;76.50;;;;;;5052735;28;20177;-45
2021/05/13 10:59:00;;;;;;;1999.90;999.90;;;23.50;74.20;;;;;;5052647;28;20173;-44
2021/05/13 11:01:38;;;;;;;1999.90;999.90;;;23.60;74.20;;;;;;5052251;28;20267;-47
2021/05/13 11:04:27;;;;;;;1999.90;999.90;;;23.40;73.20;;;;;;5052748;28;20254;-44
2021/05/13 11:07:05;;;;;;;1999.90;999.90;;;23.30;74.00;;;;;;5052748;28;20530;-49
2021/05/13 11:09:46;;;;;;;1999.90;999.90;;;23.30;72.10;;;;;;5052180;28;20184;-46
2021/05/13 11:12:14;;;;;;;1999.90;999.90;;;23.20;70.70;;;;;;5052113;28;20723;-46
2021/05/13 11:18:06;;;;;;;1999.90;999.90;;;23.10;68.70;;;;;;5052089;28;20704;-53
2021/05/13 11:20:30;;;;;;;1999.90;999.90;;;23.40;69.40;;;;;;5051673;28;20189;-53
2021/05/13 11:23:11;;;;;;;1999.90;999.90;;;23.60;67.40;;;;;;5052039;28;20201;-50
2021/05/13 11:25:49;;;;;;;1999.90;999.90;;;23.60;68.50;;;;;;5052115;28;20157;-47
2021/05/13 11:28:46;;;;;;;1999.90;999.90;;;23.50;67.50;;;;;;5051811;28;20239;-45
2021/05/13 11:31:21;;;;;;;1999.90;999.90;;;23.50;67.80;;;;;;5051096;28;20254;-50
2021/05/13 11:33:53;;;;;;;1999.90;999.90;;;23.40;67.10;;;;;;5051968;28;20243;-48
2021/05/13 11:36:30;;;;;;;1999.90;999.90;;;23.40;68.00;;;;;;5052056;28;20267;-43
2021/05/13 11:39:07;;;;;;;1999.90;999.90;;;23.50;66.30;;;;;;5052126;28;20470;-45
2021/05/13 11:41:34;;;;;;;1999.90;999.90;;;23.50;66.00;;;;;;5053446;28;20177;-45
2021/05/13 11:44:00;;;;;;;1999.90;999.90;;;23.60;67.00;;;;;;5055938;28;20340;-45
2021/05/13 11:46:27;;;;;;;1999.90;999.90;;;23.80;65.40;;;;;;5056018;28;20251;-51
2021/05/13 11:48:55;;;;;;;1999.90;999.90;;;23.90;66.20;;;;;;5055826;28;20177;-45
2021/05/13 11:51:32;;;;;;;1999.90;999.90;;;23.90;66.30;;;;;;5056065;28;20169;-54
2021/05/13 11:54:01;;;;;;;1999.90;999.90;;;23.80;65.50;;;;;;5055999;28;20203;-52
2021/05/13 11:56:30;;;;;;;1999.90;999.90;;;23.80;65.10;;;;;;5055797;28;20632;-46
2021/05/13 11:59:01;;;;;;;1999.90;999.90;;;23.60;64.70;;;;;;5055388;28;20267;-45
2021/05/13 12:01:36;;;;;;;1999.90;999.90;;;23.60;64.40;;;;;;5054682;28;20161;-44
2021/05/13 12:04:04;;;;;;;1999.90;999.90;;;23.80;63.30;;;;;;5055534;28;20201;-45
2021/05/13 12:06:55;;;;;;;1999.90;999.90;;;23.80;62.10;;;;;;5055957;28;20161;-44
2021/05/13 12:09:23;;;;;;;1999.90;999.90;;;24.00;60.30;;;;;;5055869;28;20210;-46
2021/05/13 12:11:53;;;;;;;1999.90;999.90;;;24.10;61.20;;;;;;5056175;28;20712;-45
2021/05/13 12:14:26;;;;;;;1999.90;999.90;;;24.10;60.50;;;;;;5055955;28;20699;-44
2021/05/13 12:17:01;;;;;;;1999.90;999.90;;;24.20;60.00;;;;;;5055842;28;20219;-47
2021/05/13 12:19:31;;;;;;;1999.90;999.90;;;24.20;60.10;;;;;;5055838;28;20616;-45